createdAt,value
2023-02-17T00:04:12.528Z,67.19
2023-02-17T00:09:12.503Z,67.27
2023-02-17T00:14:12.408Z,67.39
2023-02-17T00:19:12.334Z,67.43
2023-02-17T00:24:12.260Z,67.35
2023-02-17T00:29:12.216Z,67.30
2023-02-17T00:34:12.136Z,67.29
2023-02-17T00:39:12.099Z,67.38
2023-02-17T00:44:14.224Z,67.35
2023-02-17T00:49:11.949Z,67.35
2023-02-17T00:54:11.876Z,67.41
2023-02-17T00:59:11.817Z,67.43
2023-02-17T01:04:11.768Z,67.43
2023-02-17T01:09:29.179Z,67.03
2023-02-17T01:14:21.590Z,67.39
2023-02-17T01:19:21.505Z,67.58
2023-02-17T01:24:21.454Z,67.62
2023-02-17T01:29:21.382Z,67.60
2023-02-17T01:34:21.323Z,67.64
2023-02-17T01:39:21.242Z,67.63
2023-02-17T01:44:21.195Z,67.64
2023-02-17T01:49:21.108Z,67.63
2023-02-17T01:54:21.051Z,67.64
2023-02-17T01:59:20.970Z,67.63
2023-02-17T02:04:20.930Z,67.63
2023-02-17T02:09:20.838Z,67.64
2023-02-17T02:14:20.793Z,67.72
2023-02-17T02:19:20.706Z,67.75
2023-02-17T02:24:20.680Z,67.74
2023-02-17T02:29:20.593Z,67.72
2023-02-17T02:34:20.546Z,67.76
2023-02-17T02:39:20.490Z,67.81
2023-02-17T02:44:20.421Z,67.88
2023-02-17T02:49:20.319Z,67.95
2023-02-17T02:54:20.269Z,67.96
2023-02-17T02:59:20.164Z,67.98
2023-02-17T03:04:20.128Z,68.00
2023-02-17T03:09:20.057Z,68.05
2023-02-17T03:14:19.976Z,68.07
2023-02-17T03:19:19.927Z,68.15
2023-02-17T03:24:19.888Z,68.19
2023-02-17T03:29:19.789Z,68.22
2023-02-17T03:34:19.756Z,68.25
2023-02-17T03:39:19.733Z,68.28
2023-02-17T03:44:19.622Z,68.38
2023-02-17T03:49:19.537Z,68.39
2023-02-17T03:54:19.506Z,68.41
2023-02-17T03:59:19.387Z,68.48
2023-02-17T04:04:19.413Z,68.52
2023-02-17T04:09:19.265Z,68.54
2023-02-17T04:14:19.222Z,68.57
2023-02-17T04:19:21.161Z,68.62
2023-02-17T04:24:19.079Z,68.66
2023-02-17T04:29:18.997Z,68.67
2023-02-17T04:34:18.948Z,68.70
2023-02-17T04:39:18.839Z,68.82
2023-02-17T04:44:18.818Z,68.97
2023-02-17T04:49:18.725Z,68.94
2023-02-17T04:54:18.676Z,68.96
2023-02-17T04:59:18.592Z,68.99
2023-02-17T05:04:18.549Z,69.10
2023-02-17T05:09:18.479Z,69.11
2023-02-17T05:14:18.404Z,69.11
2023-02-17T05:19:34.322Z,68.76
2023-02-17T05:24:26.713Z,69.16
2023-02-17T05:29:26.663Z,69.36
2023-02-17T05:34:26.584Z,69.44
2023-02-17T05:39:26.546Z,69.50
2023-02-17T05:44:26.441Z,69.54
2023-02-17T05:49:26.402Z,69.60
2023-02-17T05:55:06.578Z,69.65
2023-02-17T06:00:06.405Z,69.70
2023-02-17T06:05:06.380Z,69.68
2023-02-17T06:10:06.287Z,69.87
2023-02-17T06:15:06.185Z,69.93
2023-02-17T06:20:06.130Z,70.03
2023-02-17T06:25:06.040Z,69.96
2023-02-17T06:30:06.038Z,69.94
2023-02-17T06:35:05.926Z,69.91
2023-02-17T06:40:05.877Z,69.89
2023-02-17T06:45:05.782Z,69.91
2023-02-17T06:50:05.712Z,69.86
2023-02-17T06:55:05.652Z,69.85
2023-02-17T07:00:05.620Z,69.82
2023-02-17T07:05:05.516Z,69.76
2023-02-17T07:10:05.467Z,69.78
2023-02-17T07:15:05.413Z,69.74
2023-02-17T07:20:05.325Z,69.78
2023-02-17T07:25:05.284Z,69.78
2023-02-17T07:30:05.255Z,69.84
2023-02-17T07:35:05.145Z,69.96
2023-02-17T07:40:05.059Z,70.01
2023-02-17T07:45:05.026Z,70.12
2023-02-17T07:50:04.920Z,70.17
2023-02-17T07:55:04.872Z,70.21
2023-02-17T08:00:04.803Z,70.28
2023-02-17T08:05:04.730Z,70.27
2023-02-17T08:10:04.667Z,70.35
2023-02-17T08:15:04.599Z,70.55
2023-02-17T08:20:08.640Z,70.39
2023-02-17T08:25:04.501Z,70.40
2023-02-17T08:30:04.472Z,70.44
2023-02-17T08:35:04.389Z,70.48
2023-02-17T08:40:04.305Z,70.44
2023-02-17T08:45:04.212Z,70.19
2023-02-17T08:50:04.143Z,70.16
2023-02-17T08:55:04.068Z,69.81
2023-02-17T09:00:05.605Z,69.16
2023-02-17T09:05:03.981Z,68.81
2023-02-17T09:10:03.910Z,68.77
2023-02-17T09:15:03.815Z,68.54
2023-02-17T09:20:05.064Z,68.14
2023-02-17T09:25:04.710Z,67.81
2023-02-17T09:30:03.672Z,67.89
2023-02-17T09:35:03.556Z,68.04
2023-02-17T09:40:03.487Z,67.62
2023-02-17T09:45:03.449Z,67.24
2023-02-17T09:50:03.348Z,67.00
2023-02-17T09:55:03.367Z,66.57
2023-02-17T10:00:03.242Z,66.33
2023-02-17T10:05:03.274Z,66.08
2023-02-17T10:10:03.154Z,65.90
2023-02-17T10:15:03.110Z,65.60
2023-02-17T10:20:02.994Z,64.63
2023-02-17T10:25:02.913Z,63.61
2023-02-17T10:30:02.928Z,62.66
2023-02-17T10:35:02.766Z,62.79
2023-02-17T10:40:02.690Z,62.07
2023-02-17T10:45:02.718Z,60.34
2023-02-17T10:50:02.593Z,59.50
2023-02-17T10:55:06.581Z,59.86
2023-02-17T11:00:03.419Z,54.61
2023-02-17T11:05:02.355Z,51.73
2023-02-17T11:10:02.278Z,52.59
2023-02-17T11:15:02.219Z,46.95
2023-02-17T11:20:02.146Z,49.97
2023-02-17T11:25:02.162Z,51.91
2023-02-17T11:30:02.056Z,52.29
2023-02-17T11:35:01.995Z,47.57
2023-02-17T11:40:01.924Z,48.62
2023-02-17T11:45:01.842Z,50.42
2023-02-17T11:50:01.781Z,51.95
2023-02-17T11:55:01.704Z,52.78
2023-02-17T12:00:01.590Z,53.32
2023-02-17T12:05:01.624Z,52.38
2023-02-17T12:10:01.496Z,52.98
2023-02-17T12:15:01.446Z,53.84
2023-02-17T12:20:01.344Z,54.64
2023-02-17T12:25:01.300Z,54.67
2023-02-17T12:30:01.282Z,55.52
2023-02-17T12:35:01.158Z,56.67
2023-02-17T12:40:01.629Z,57.13
2023-02-17T12:45:01.016Z,57.60
2023-02-17T12:50:00.935Z,58.27
2023-02-17T12:55:00.884Z,57.90
2023-02-17T13:00:00.832Z,58.69
2023-02-17T13:05:00.763Z,58.77
2023-02-17T13:10:00.752Z,59.25
2023-02-17T13:15:00.645Z,59.68
2023-02-17T13:20:00.567Z,60.06
2023-02-17T13:25:00.499Z,59.80
2023-02-17T13:30:00.482Z,59.71
2023-02-17T13:35:00.403Z,58.86
2023-02-17T13:40:00.301Z,59.25
2023-02-17T13:45:00.274Z,59.15
2023-02-17T13:50:00.179Z,59.32
2023-02-17T13:55:00.111Z,59.41
2023-02-17T14:00:00.091Z,59.45
2023-02-17T14:05:00.066Z,59.85
2023-02-17T14:09:59.890Z,60.16
2023-02-17T14:14:59.870Z,60.36
2023-02-17T14:19:59.759Z,60.65
2023-02-17T14:24:59.694Z,60.93
2023-02-17T14:29:59.689Z,61.13
2023-02-17T14:34:59.595Z,61.57
2023-02-17T14:39:59.480Z,61.76
2023-02-17T14:44:59.435Z,62.02
2023-02-17T14:49:59.377Z,62.47
2023-02-17T14:54:59.282Z,62.57
2023-02-17T14:59:59.239Z,62.62
2023-02-17T15:04:59.175Z,62.70
2023-02-17T15:09:59.116Z,62.84
2023-02-17T15:14:59.091Z,62.76
2023-02-17T15:19:58.945Z,62.62
2023-02-17T15:24:58.903Z,62.41
2023-02-17T15:29:58.929Z,62.30
2023-02-17T15:34:58.767Z,62.16
2023-02-17T15:39:58.673Z,62.11
2023-02-17T15:44:58.638Z,61.90
2023-02-17T15:49:58.550Z,61.78
2023-02-17T15:54:58.507Z,61.73
2023-02-17T15:59:58.416Z,61.58
2023-02-17T16:04:58.385Z,61.43
2023-02-17T16:09:58.277Z,61.56
2023-02-17T16:14:58.258Z,61.74
2023-02-17T16:19:58.141Z,61.68
2023-02-17T16:24:58.089Z,61.67
2023-02-17T16:29:58.076Z,61.72
2023-02-17T16:34:57.993Z,61.70
2023-02-17T16:39:57.886Z,61.73
2023-02-17T16:44:57.840Z,61.70
2023-02-17T16:49:57.766Z,61.71
2023-02-17T16:54:57.708Z,61.71
2023-02-17T16:59:57.610Z,61.71
2023-02-17T17:04:57.565Z,61.73
2023-02-17T17:10:15.299Z,61.65
2023-02-17T17:14:58.438Z,61.52
2023-02-17T17:19:57.357Z,61.43
2023-02-17T17:24:57.294Z,61.37
2023-02-17T17:29:57.244Z,61.26
2023-02-17T17:34:57.205Z,61.31
2023-02-17T17:39:57.062Z,61.47
2023-02-17T17:44:57.058Z,61.78
2023-02-17T17:49:56.947Z,62.15
2023-02-17T17:54:56.972Z,62.69
2023-02-17T17:59:56.828Z,63.22
2023-02-17T18:04:56.798Z,63.69
2023-02-17T18:09:56.802Z,64.58
2023-02-17T18:14:56.644Z,64.91
2023-02-17T18:19:56.677Z,65.33
2023-02-17T18:24:56.529Z,65.74
2023-02-17T18:29:56.523Z,66.00
2023-02-17T18:34:56.395Z,66.46
2023-02-17T18:39:56.341Z,66.84
2023-02-17T18:44:56.236Z,67.10
2023-02-17T18:49:56.183Z,67.34
2023-02-17T18:54:56.133Z,67.42
2023-02-17T18:59:56.036Z,67.46
2023-02-17T19:04:55.979Z,67.60
2023-02-17T19:09:55.905Z,67.67
2023-02-17T19:14:55.886Z,67.67
2023-02-17T19:19:55.775Z,67.90
2023-02-17T19:24:55.722Z,68.02
2023-02-17T19:29:55.644Z,68.15
2023-02-17T19:34:55.589Z,68.30
2023-02-17T19:39:55.481Z,68.12
2023-02-17T19:44:55.449Z,68.07
2023-02-17T19:49:55.368Z,67.98
2023-02-17T19:54:55.354Z,67.88
2023-02-17T19:59:55.244Z,67.82
2023-02-17T20:04:55.197Z,67.76
2023-02-17T20:09:55.145Z,67.70
2023-02-17T20:14:55.056Z,67.65
2023-02-17T20:19:54.997Z,67.66
2023-02-17T20:24:54.960Z,67.64
2023-02-17T20:29:54.865Z,67.62
2023-02-17T20:34:54.816Z,67.60
2023-02-17T20:39:54.743Z,67.57
2023-02-17T20:44:54.668Z,67.56
2023-02-17T20:49:54.604Z,67.53
2023-02-17T20:54:54.534Z,67.57
2023-02-17T20:59:54.461Z,67.53
2023-02-17T21:04:54.414Z,67.48
2023-02-17T21:09:54.321Z,67.47
2023-02-17T21:14:54.284Z,67.47
2023-02-17T21:19:54.171Z,67.44
2023-02-17T21:24:54.163Z,67.48
2023-02-17T21:29:54.097Z,67.45
2023-02-17T21:34:53.994Z,67.43
2023-02-17T21:39:53.998Z,67.37
2023-02-17T21:44:53.863Z,67.33
2023-02-17T21:49:53.802Z,67.29
2023-02-17T21:54:53.756Z,67.28
2023-02-17T21:59:53.655Z,67.28
2023-02-17T22:04:53.656Z,67.30
2023-02-17T22:09:53.558Z,67.37
2023-02-17T22:14:53.520Z,67.43
2023-02-17T22:19:53.387Z,67.52
2023-02-17T22:24:53.358Z,67.58
2023-02-17T22:29:53.333Z,67.64
2023-02-17T22:34:53.221Z,67.71
2023-02-17T22:39:53.136Z,67.79
2023-02-17T22:44:53.055Z,67.83
2023-02-17T22:49:52.994Z,67.87
2023-02-17T22:54:52.940Z,67.86
2023-02-17T22:59:52.840Z,67.81
2023-02-17T23:04:52.797Z,67.78
2023-02-17T23:09:52.759Z,67.71
2023-02-17T23:14:52.691Z,67.69
2023-02-17T23:19:52.600Z,67.72
2023-02-17T23:24:52.539Z,67.79
2023-02-17T23:29:52.469Z,67.87
2023-02-17T23:34:52.421Z,67.93
2023-02-17T23:39:52.325Z,68.04
2023-02-17T23:44:52.290Z,68.15
2023-02-17T23:49:52.196Z,68.24
2023-02-17T23:54:52.168Z,68.32
2023-02-17T23:59:52.064Z,68.39
